Terminal Aerodrome Forecast
Issued by NWS Wakefield, VA

Home | Current Version | Previous Version | Text Only | Print | Product List | Glossary On
Versions: 1 2 3 4 5 6 7 8 9 10 11 12 13 14 15 16 17 18 19 20 21 22 23 24 25 26 27 28 29 30 31 32 33
079
FTUS41 KAKQ 221904 AAA
TAFECG
TAF AMD
KECG 221904Z 2219/2318 VRB03KT 4SM -DZ BR OVC004
     FM222300 04005KT 4SM BR OVC005
     FM230200 07010KT 3SM RA BR OVC004
     FM231200 16010KT 3SM -RA BR OVC003
     FM231600 21008KT P6SM BKN025=

USA.gov is the U.S. government's official web portal to all federal, state and local government web resources and services.